createdAt,value
2018-07-10T00:00:32.803Z,78.86
2018-07-10T00:01:32.790Z,78.76
2018-07-10T00:02:32.787Z,79.68
2018-07-10T00:03:32.778Z,78.76
2018-07-10T00:04:32.771Z,79.16
2018-07-10T00:05:32.744Z,79.16
2018-07-10T00:06:32.738Z,79.68
2018-07-10T00:07:32.725Z,79.27
2018-07-10T00:08:32.735Z,79.47
2018-07-10T00:09:32.703Z,79.47
2018-07-10T00:10:32.712Z,79.77
2018-07-10T00:11:32.681Z,78.55
2018-07-10T00:12:32.675Z,78.66
2018-07-10T00:13:32.656Z,78.72
2018-07-10T00:14:32.658Z,79.68
2018-07-10T00:15:32.637Z,79.37
2018-07-10T00:16:32.646Z,79.68
2018-07-10T00:17:32.605Z,79.74
2018-07-10T00:18:33.184Z,78.86
2018-07-10T00:19:32.611Z,78.55
2018-07-10T00:20:32.576Z,79.16
2018-07-10T00:21:32.568Z,79.27
2018-07-10T00:22:32.573Z,79.77
2018-07-10T00:23:32.557Z,79.77
2018-07-10T00:24:32.543Z,79.68
2018-07-10T00:25:32.551Z,79.37
2018-07-10T00:26:32.517Z,79.27
2018-07-10T00:27:32.497Z,79.27
2018-07-10T00:28:32.506Z,79.47
2018-07-10T00:29:32.475Z,79.16
2018-07-10T00:30:32.490Z,79.68
2018-07-10T00:31:32.458Z,79.37
2018-07-10T00:32:32.443Z,79.37
2018-07-10T00:33:32.426Z,79.57
2018-07-10T00:34:32.435Z,79.98
2018-07-10T00:35:32.411Z,79.37
2018-07-10T00:36:32.415Z,79.61
2018-07-10T00:37:32.385Z,79.47
2018-07-10T00:38:32.378Z,79.57
2018-07-10T00:39:32.369Z,79.06
2018-07-10T00:40:32.374Z,79.47
2018-07-10T00:41:32.355Z,79.88
2018-07-10T00:42:32.326Z,79.88
2018-07-10T00:43:32.328Z,79.88
2018-07-10T00:44:32.307Z,79.98
2018-07-10T00:45:32.300Z,79.88
2018-07-10T00:46:32.316Z,80.02
2018-07-10T00:47:32.276Z,79.57
2018-07-10T00:48:32.266Z,79.57
2018-07-10T00:49:32.259Z,80.38
2018-07-10T00:50:32.248Z,80.08
2018-07-10T00:51:32.245Z,80.49
2018-07-10T00:52:32.224Z,80.59
2018-07-10T00:53:32.211Z,79.91
2018-07-10T00:54:32.207Z,80.11
2018-07-10T00:55:32.189Z,80.02
2018-07-10T00:56:32.187Z,80.22
2018-07-10T00:57:32.160Z,80.08
2018-07-10T00:58:32.173Z,79.91
2018-07-10T00:59:32.139Z,79.77
2018-07-10T01:00:32.128Z,80.11
2018-07-10T01:01:32.114Z,79.91
2018-07-10T01:02:32.111Z,80.73
2018-07-10T01:03:32.096Z,80.32
2018-07-10T01:04:32.105Z,80.69
2018-07-10T01:05:32.076Z,80.42
2018-07-10T01:06:32.063Z,80.22
2018-07-10T01:07:32.077Z,79.81
2018-07-10T01:08:32.044Z,80.42
2018-07-10T01:09:32.026Z,80.42
2018-07-10T01:10:32.031Z,80.63
2018-07-10T01:11:32.010Z,81.04
2018-07-10T01:12:31.993Z,80.42
2018-07-10T01:13:32.203Z,80.73
2018-07-10T01:14:32.012Z,80.93
2018-07-10T01:15:31.961Z,80.29
2018-07-10T01:16:31.990Z,80.63
2018-07-10T01:17:31.945Z,80.73
2018-07-10T01:18:31.929Z,80.11
2018-07-10T01:19:31.918Z,80.22
2018-07-10T01:20:31.925Z,79.77
2018-07-10T01:21:31.898Z,79.68
2018-07-10T01:22:31.898Z,80.38
2018-07-10T01:23:31.901Z,80.49
2018-07-10T01:24:31.862Z,79.88
2018-07-10T01:25:31.849Z,79.77
2018-07-10T01:26:31.844Z,80.08
2018-07-10T01:27:31.825Z,79.88
2018-07-10T01:28:31.831Z,80.18
2018-07-10T01:29:31.802Z,80.08
2018-07-10T01:30:31.792Z,81.10
2018-07-10T01:31:31.787Z,80.79
2018-07-10T01:32:31.776Z,80.79
2018-07-10T01:33:31.764Z,81.10
2018-07-10T01:34:31.768Z,81.20
2018-07-10T01:35:31.732Z,80.18
2018-07-10T01:36:31.731Z,80.38
2018-07-10T01:37:31.720Z,80.79
2018-07-10T01:38:31.707Z,81.20
2018-07-10T01:39:31.697Z,80.42
2018-07-10T01:40:31.693Z,80.63
2018-07-10T01:41:31.706Z,80.90
2018-07-10T01:42:31.658Z,81.10
2018-07-10T01:43:31.642Z,81.10
2018-07-10T01:44:31.636Z,80.29
2018-07-10T01:45:31.630Z,80.79
2018-07-10T01:46:31.628Z,80.90
2018-07-10T01:47:31.613Z,80.90
2018-07-10T01:48:31.589Z,81.20
2018-07-10T01:49:31.581Z,80.90
2018-07-10T01:50:31.569Z,80.99
2018-07-10T01:51:31.554Z,80.90
2018-07-10T01:52:31.581Z,80.90
2018-07-10T01:53:31.531Z,81.10
2018-07-10T01:54:31.531Z,80.99
2018-07-10T01:55:31.509Z,80.99
2018-07-10T01:56:31.547Z,80.90
2018-07-10T01:57:31.511Z,81.60
2018-07-10T01:58:31.486Z,81.51
2018-07-10T01:59:31.464Z,81.13
2018-07-10T02:00:31.452Z,80.69
2018-07-10T02:01:31.446Z,80.79
2018-07-10T02:02:31.434Z,80.90
2018-07-10T02:03:31.443Z,81.10
2018-07-10T02:04:31.428Z,81.04
2018-07-10T02:05:31.405Z,81.51
2018-07-10T02:06:31.385Z,81.60
2018-07-10T02:07:31.378Z,81.30
2018-07-10T02:08:31.362Z,80.79
2018-07-10T02:09:31.372Z,80.99
2018-07-10T02:10:31.360Z,80.83
2018-07-10T02:11:31.333Z,81.30
2018-07-10T02:12:31.319Z,81.24
2018-07-10T02:13:31.317Z,81.13
2018-07-10T02:14:31.294Z,81.04
2018-07-10T02:15:31.286Z,80.29
2018-07-10T02:16:31.293Z,80.93
2018-07-10T02:17:31.260Z,80.99
2018-07-10T02:18:31.251Z,81.13
2018-07-10T02:19:31.255Z,80.93
2018-07-10T02:20:31.234Z,81.85
2018-07-10T02:21:31.217Z,81.65
2018-07-10T02:22:31.222Z,81.54
2018-07-10T02:23:31.195Z,81.95
2018-07-10T02:24:31.201Z,81.34
2018-07-10T02:25:31.171Z,81.10
2018-07-10T02:26:31.166Z,81.24
2018-07-10T02:27:31.156Z,81.65
2018-07-10T02:28:31.161Z,82.05
2018-07-10T02:29:31.128Z,81.95
2018-07-10T02:30:31.133Z,82.15
2018-07-10T02:31:31.119Z,82.76
2018-07-10T02:32:31.105Z,82.66
2018-07-10T02:33:31.091Z,82.35
2018-07-10T02:34:31.090Z,82.66
2018-07-10T02:35:31.060Z,82.26
2018-07-10T02:36:31.060Z,82.87
2018-07-10T02:37:31.046Z,83.58
2018-07-10T02:38:31.027Z,82.87
2018-07-10T02:39:31.018Z,82.66
2018-07-10T02:40:31.019Z,82.46
2018-07-10T02:41:31.006Z,82.15
2018-07-10T02:42:30.990Z,81.65
2018-07-10T02:43:30.977Z,82.15
2018-07-10T02:44:30.962Z,82.93
2018-07-10T02:45:30.950Z,82.66
2018-07-10T02:46:30.962Z,82.62
2018-07-10T02:47:30.936Z,82.21
2018-07-10T02:48:30.917Z,82.73
2018-07-10T02:49:30.903Z,81.60
2018-07-10T02:50:30.892Z,81.71
2018-07-10T02:51:30.894Z,81.51
2018-07-10T02:52:30.884Z,81.91
2018-07-10T02:53:30.866Z,81.71
2018-07-10T02:54:30.859Z,81.20
2018-07-10T02:55:30.839Z,80.69
2018-07-10T02:56:30.846Z,81.60
2018-07-10T02:57:30.815Z,80.79
2018-07-10T02:58:30.832Z,81.81
2018-07-10T02:59:30.793Z,82.01
2018-07-10T03:00:30.782Z,82.01
2018-07-10T03:01:30.780Z,82.62
2018-07-10T03:02:30.764Z,82.21
2018-07-10T03:03:30.750Z,82.12
2018-07-10T03:04:30.750Z,82.73
2018-07-10T03:05:30.726Z,81.91
2018-07-10T03:06:30.750Z,81.40
2018-07-10T03:07:31.725Z,82.01
2018-07-10T03:08:30.694Z,82.62
2018-07-10T03:09:30.698Z,82.01
2018-07-10T03:10:30.669Z,81.81
2018-07-10T03:11:30.674Z,81.60
2018-07-10T03:12:30.648Z,81.60
2018-07-10T03:13:30.639Z,80.99
2018-07-10T03:14:30.625Z,80.90
2018-07-10T03:15:30.628Z,80.79
2018-07-10T03:16:30.620Z,81.20
2018-07-10T03:17:30.600Z,81.46
2018-07-10T03:18:30.579Z,81.30
2018-07-10T03:19:30.562Z,81.71
2018-07-10T03:20:30.557Z,82.01
2018-07-10T03:21:30.553Z,81.40
2018-07-10T03:22:30.570Z,82.12
2018-07-10T03:23:30.527Z,81.10
2018-07-10T03:24:30.512Z,81.16
2018-07-10T03:25:30.506Z,80.85
2018-07-10T03:26:30.489Z,80.85
2018-07-10T03:27:30.492Z,81.98
2018-07-10T03:28:30.482Z,81.37
2018-07-10T03:29:30.457Z,81.57
2018-07-10T03:30:30.449Z,80.96
2018-07-10T03:31:30.435Z,81.06
2018-07-10T03:32:30.420Z,81.06
2018-07-10T03:33:30.447Z,80.96
2018-07-10T03:34:30.401Z,81.37
2018-07-10T03:35:30.394Z,81.87
2018-07-10T03:36:30.519Z,81.37
2018-07-10T03:37:30.370Z,81.46
2018-07-10T03:38:30.371Z,82.18
2018-07-10T03:39:30.362Z,81.77
2018-07-10T03:40:30.334Z,81.98
2018-07-10T03:41:30.328Z,82.07
2018-07-10T03:42:30.312Z,82.28
2018-07-10T03:43:30.327Z,82.18
2018-07-10T03:44:30.292Z,81.57
2018-07-10T03:45:30.294Z,81.98
2018-07-10T03:46:30.267Z,82.18
2018-07-10T03:47:30.256Z,81.77
2018-07-10T03:48:30.241Z,82.07
2018-07-10T03:49:30.252Z,82.28
2018-07-10T03:50:30.222Z,81.98
2018-07-10T03:51:30.236Z,81.46
2018-07-10T03:52:30.198Z,81.06
2018-07-10T03:53:30.184Z,80.96
2018-07-10T03:54:30.178Z,81.06
2018-07-10T03:55:30.183Z,80.96
2018-07-10T03:56:30.157Z,80.35
2018-07-10T03:57:30.162Z,80.24
2018-07-10T03:58:30.131Z,80.96
2018-07-10T03:59:30.124Z,80.92
2018-07-10T04:00:30.107Z,80.51
2018-07-10T04:01:30.119Z,80.51
2018-07-10T04:02:30.092Z,80.92
2018-07-10T04:03:30.095Z,81.16
2018-07-10T04:04:30.061Z,81.73
2018-07-10T04:05:30.075Z,81.67
2018-07-10T04:06:30.044Z,80.92
2018-07-10T04:07:30.033Z,81.37
2018-07-10T04:08:30.019Z,81.43
2018-07-10T04:09:30.029Z,81.53
2018-07-10T04:10:29.999Z,81.73
2018-07-10T04:11:30.001Z,81.63
2018-07-10T04:12:29.975Z,81.57
2018-07-10T04:13:29.967Z,81.12
2018-07-10T04:14:29.953Z,81.02
2018-07-10T04:15:29.959Z,80.82
2018-07-10T04:16:29.947Z,80.72
2018-07-10T04:17:29.925Z,80.92
2018-07-10T04:18:29.909Z,80.82
2018-07-10T04:19:29.897Z,80.21
2018-07-10T04:20:29.882Z,80.82
2018-07-10T04:21:29.892Z,80.92
2018-07-10T04:22:29.863Z,80.41
2018-07-10T04:23:29.850Z,80.82
2018-07-10T04:24:29.840Z,80.82
2018-07-10T04:25:29.830Z,79.80
2018-07-10T04:26:29.834Z,80.21
2018-07-10T04:27:29.824Z,80.41
2018-07-10T04:28:29.796Z,80.11
2018-07-10T04:29:29.781Z,79.90
2018-07-10T04:30:29.772Z,79.97
2018-07-10T04:31:29.763Z,79.97
2018-07-10T04:32:29.763Z,80.21
2018-07-10T04:33:29.758Z,80.31
2018-07-10T04:34:29.729Z,78.99
2018-07-10T04:35:29.711Z,77.67
2018-07-10T04:36:29.705Z,77.56
2018-07-10T04:37:29.701Z,78.04
2018-07-10T04:38:29.679Z,79.46
2018-07-10T04:39:29.687Z,79.36
2018-07-10T04:40:29.658Z,78.24
2018-07-10T04:41:29.649Z,77.94
2018-07-10T04:42:29.676Z,78.51
2018-07-10T04:43:29.627Z,77.63
2018-07-10T04:44:29.617Z,78.00
2018-07-10T04:45:29.615Z,78.34
2018-07-10T04:46:29.592Z,79.22
2018-07-10T04:47:29.620Z,79.66
2018-07-10T04:48:29.571Z,78.51
2018-07-10T04:49:29.564Z,79.83
2018-07-10T04:50:29.544Z,79.52
2018-07-10T04:51:29.551Z,79.36
2018-07-10T04:52:29.526Z,78.95
2018-07-10T04:53:29.523Z,78.81
2018-07-10T04:54:29.501Z,77.39
2018-07-10T04:55:29.537Z,77.49
2018-07-10T04:56:29.481Z,77.80
2018-07-10T04:57:29.482Z,77.39
2018-07-10T04:58:29.469Z,77.43
2018-07-10T04:59:29.445Z,78.00
2018-07-10T05:00:29.470Z,77.29
2018-07-10T05:01:29.423Z,77.59
2018-07-10T05:02:29.409Z,78.04
2018-07-10T05:03:29.426Z,78.64
2018-07-10T05:04:29.390Z,78.41
2018-07-10T05:05:29.379Z,78.00
2018-07-10T05:06:29.370Z,77.94
2018-07-10T05:07:29.357Z,78.00
2018-07-10T05:08:29.369Z,77.39
2018-07-10T05:09:29.367Z,77.80
2018-07-10T05:10:29.323Z,78.00
2018-07-10T05:11:29.314Z,77.90
2018-07-10T05:12:29.296Z,78.64
2018-07-10T05:13:29.289Z,77.94
2018-07-10T05:14:29.352Z,78.44
2018-07-10T05:15:29.286Z,77.83
2018-07-10T05:16:29.258Z,77.63
2018-07-10T05:17:29.245Z,77.43
2018-07-10T05:18:29.234Z,77.73
2018-07-10T05:19:29.225Z,77.94
2018-07-10T05:20:29.226Z,77.94
2018-07-10T05:21:29.221Z,78.04
2018-07-10T05:22:29.186Z,79.16
2018-07-10T05:23:29.193Z,79.60
2018-07-10T05:24:29.167Z,79.56
2018-07-10T05:25:29.186Z,79.05
2018-07-10T05:26:29.172Z,77.43
2018-07-10T05:27:29.147Z,77.02
2018-07-10T05:28:29.122Z,77.06
2018-07-10T05:29:29.114Z,77.43
2018-07-10T05:30:29.099Z,77.02
2018-07-10T05:31:29.106Z,77.43
2018-07-10T05:32:29.078Z,77.56
2018-07-10T05:33:29.094Z,77.63
2018-07-10T05:34:29.085Z,77.77
2018-07-10T05:35:29.046Z,78.08
2018-07-10T05:36:29.050Z,78.17
2018-07-10T05:37:29.026Z,78.38
2018-07-10T05:38:29.009Z,78.28
2018-07-10T05:39:29.017Z,79.09
2018-07-10T05:40:28.982Z,79.39
2018-07-10T05:41:28.977Z,78.38
2018-07-10T05:42:28.985Z,79.02
2018-07-10T05:43:28.952Z,79.50
2018-07-10T05:44:28.953Z,79.23
2018-07-10T05:45:28.954Z,79.19
2018-07-10T05:46:28.927Z,79.02
2018-07-10T05:47:28.907Z,79.60
2018-07-10T05:48:28.903Z,79.13
2018-07-10T05:49:28.891Z,79.02
2018-07-10T05:50:28.882Z,79.02
2018-07-10T05:51:28.919Z,79.53
2018-07-10T05:52:28.865Z,79.74
2018-07-10T05:53:28.888Z,80.45
2018-07-10T05:54:28.840Z,80.69
2018-07-10T05:55:28.821Z,81.51
2018-07-10T05:56:28.807Z,82.01
2018-07-10T05:57:28.814Z,82.12
2018-07-10T05:58:28.837Z,83.54
2018-07-10T05:59:28.808Z,82.73
2018-07-10T06:00:28.762Z,83.54
2018-07-10T06:01:28.776Z,83.54
2018-07-10T06:02:28.765Z,84.05
2018-07-10T06:03:28.735Z,84.97
2018-07-10T06:04:28.734Z,84.59
2018-07-10T06:05:28.706Z,84.50
2018-07-10T06:06:28.692Z,84.50
2018-07-10T06:07:28.685Z,84.50
2018-07-10T06:08:28.699Z,85.21
2018-07-10T06:09:28.668Z,85.41
2018-07-10T06:10:28.663Z,85.51
2018-07-10T06:11:28.638Z,85.41
2018-07-10T06:12:28.627Z,85.51
2018-07-10T06:13:28.644Z,85.72
2018-07-10T06:14:28.620Z,85.31
2018-07-10T06:15:28.591Z,85.41
2018-07-10T06:16:28.584Z,85.82
2018-07-10T06:17:28.572Z,85.21
2018-07-10T06:18:28.588Z,85.41
2018-07-10T06:19:28.548Z,85.96
2018-07-10T06:20:28.551Z,86.02
2018-07-10T06:21:28.526Z,86.63
2018-07-10T06:22:28.513Z,86.22
2018-07-10T06:23:28.498Z,86.63
2018-07-10T06:24:28.543Z,86.63
2018-07-10T06:25:28.487Z,86.88
2018-07-10T06:26:28.485Z,86.68
2018-07-10T06:27:28.457Z,87.18
2018-07-10T06:28:28.447Z,86.83
2018-07-10T06:29:28.448Z,86.47
2018-07-10T06:30:28.506Z,86.98
2018-07-10T06:31:28.415Z,86.27
2018-07-10T06:32:28.418Z,86.98
2018-07-10T06:33:28.392Z,86.68
2018-07-10T06:34:28.381Z,86.68
2018-07-10T06:35:28.383Z,87.02
2018-07-10T06:36:28.358Z,87.84
2018-07-10T06:37:28.347Z,87.73
2018-07-10T06:38:28.360Z,88.85
2018-07-10T06:39:28.319Z,88.75
2018-07-10T06:40:28.342Z,88.45
2018-07-10T06:41:28.307Z,88.65
2018-07-10T06:42:28.292Z,89.06
2018-07-10T06:43:28.284Z,88.75
2018-07-10T06:44:28.281Z,87.63
2018-07-10T06:45:28.312Z,88.85
2018-07-10T06:46:28.266Z,88.24
2018-07-10T06:47:28.254Z,88.55
2018-07-10T06:48:28.227Z,88.96
2018-07-10T06:49:28.234Z,88.45
2018-07-10T06:50:28.242Z,89.36
2018-07-10T06:51:28.199Z,89.53
2018-07-10T06:52:28.363Z,90.64
2018-07-10T06:53:28.250Z,90.75
2018-07-10T06:54:28.156Z,90.44
2018-07-10T06:55:28.146Z,90.60
2018-07-10T06:56:28.169Z,88.67
2018-07-10T06:57:28.122Z,88.36
2018-07-10T06:58:28.113Z,88.42
2018-07-10T06:59:28.103Z,88.63
2018-07-10T07:00:28.087Z,87.61
2018-07-10T07:01:28.107Z,88.12
2018-07-10T07:02:28.069Z,88.63
2018-07-10T07:03:28.057Z,88.83
2018-07-10T07:04:28.049Z,88.48
2018-07-10T07:05:28.034Z,88.59
2018-07-10T07:06:28.041Z,87.87
2018-07-10T07:07:28.025Z,87.87
2018-07-10T07:08:27.995Z,87.67
2018-07-10T07:09:28.000Z,86.86
2018-07-10T07:10:27.983Z,85.13
2018-07-10T07:11:28.001Z,85.47
2018-07-10T07:12:27.952Z,86.80
2018-07-10T07:13:27.948Z,86.90
2018-07-10T07:14:27.952Z,86.90
2018-07-10T07:15:27.934Z,85.58
2018-07-10T07:16:27.911Z,85.21
2018-07-10T07:17:27.925Z,85.21
2018-07-10T07:18:27.886Z,86.39
2018-07-10T07:19:27.877Z,85.92
2018-07-10T07:20:27.882Z,85.21
2018-07-10T07:21:27.858Z,85.92
2018-07-10T07:22:27.843Z,87.14
2018-07-10T07:23:27.853Z,87.04
2018-07-10T07:24:27.823Z,86.94
2018-07-10T07:25:27.812Z,86.37
2018-07-10T07:26:27.813Z,87.29
2018-07-10T07:27:27.787Z,87.55
2018-07-10T07:28:27.791Z,87.85
2018-07-10T07:29:27.767Z,87.85
2018-07-10T07:30:27.757Z,88.67
2018-07-10T07:31:27.740Z,88.77
2018-07-10T07:32:27.752Z,88.36
2018-07-10T07:33:27.753Z,89.48
2018-07-10T07:34:27.715Z,89.54
2018-07-10T07:35:27.699Z,89.44
2018-07-10T07:36:27.686Z,89.54
2018-07-10T07:37:27.692Z,87.51
2018-07-10T07:38:27.683Z,87.00
2018-07-10T07:39:27.694Z,87.30
2018-07-10T07:40:27.645Z,87.51
2018-07-10T07:41:27.630Z,87.45
2018-07-10T07:42:27.622Z,87.55
2018-07-10T07:43:27.607Z,87.96
2018-07-10T07:44:27.791Z,87.41
2018-07-10T07:45:27.611Z,88.32
2018-07-10T07:46:27.576Z,88.02
2018-07-10T07:47:27.563Z,88.73
2018-07-10T07:48:27.560Z,88.42
2018-07-10T07:49:27.557Z,87.61
2018-07-10T07:50:27.567Z,87.41
2018-07-10T07:51:27.514Z,87.71
2018-07-10T07:52:27.559Z,88.53
2018-07-10T07:53:27.500Z,87.51
2018-07-10T07:54:27.486Z,87.92
2018-07-10T07:55:27.510Z,87.47
2018-07-10T07:56:27.480Z,88.08
2018-07-10T07:57:27.447Z,87.47
2018-07-10T07:58:27.471Z,88.48
2018-07-10T07:59:27.431Z,88.18
2018-07-10T08:00:27.448Z,88.69
2018-07-10T08:01:28.208Z,89.40
2018-07-10T08:02:27.437Z,88.59
2018-07-10T08:03:27.385Z,87.12
2018-07-10T08:04:27.370Z,87.84
2018-07-10T08:05:27.359Z,87.84
2018-07-10T08:06:27.350Z,86.31
2018-07-10T08:07:27.351Z,86.96
2018-07-10T08:08:27.346Z,86.51
2018-07-10T08:09:27.323Z,86.61
2018-07-10T08:10:27.303Z,87.73
2018-07-10T08:11:27.295Z,87.12
2018-07-10T08:12:27.358Z,87.63
2018-07-10T08:13:27.272Z,87.93
2018-07-10T08:14:27.277Z,87.12
2018-07-10T08:15:27.255Z,86.77
2018-07-10T08:16:27.237Z,87.69
2018-07-10T08:17:27.242Z,87.63
2018-07-10T08:18:27.235Z,85.60
2018-07-10T08:19:27.199Z,86.61
2018-07-10T08:20:27.205Z,86.41
2018-07-10T08:21:27.183Z,86.47
2018-07-10T08:22:27.183Z,85.25
2018-07-10T08:23:27.160Z,85.39
2018-07-10T08:24:27.214Z,86.00
2018-07-10T08:25:27.143Z,86.31
2018-07-10T08:26:27.146Z,85.96
2018-07-10T08:27:27.136Z,86.47
2018-07-10T08:28:27.104Z,86.61
2018-07-10T08:29:27.102Z,85.39
2018-07-10T08:30:27.078Z,84.99
2018-07-10T08:31:27.072Z,84.99
2018-07-10T08:32:27.080Z,85.90
2018-07-10T08:33:27.161Z,87.43
2018-07-10T08:34:27.050Z,87.32
2018-07-10T08:35:27.030Z,87.63
2018-07-10T08:36:27.025Z,86.00
2018-07-10T08:37:27.011Z,86.61
2018-07-10T08:38:27.007Z,87.02
2018-07-10T08:39:27.026Z,86.61
2018-07-10T08:40:26.969Z,86.61
2018-07-10T08:41:26.960Z,86.51
2018-07-10T08:42:26.954Z,86.86
2018-07-10T08:43:26.934Z,86.04
2018-07-10T08:44:26.925Z,87.92
2018-07-10T08:45:26.980Z,87.51
2018-07-10T08:46:26.904Z,88.53
2018-07-10T08:47:26.893Z,89.54
2018-07-10T08:48:26.881Z,88.93
2018-07-10T08:49:26.872Z,88.53
2018-07-10T08:50:26.864Z,88.39
2018-07-10T08:51:26.852Z,89.30
2018-07-10T08:52:26.839Z,87.47
2018-07-10T08:53:26.821Z,88.48
2018-07-10T08:54:26.808Z,88.69
2018-07-10T08:55:26.817Z,88.39
2018-07-10T08:56:26.794Z,88.65
2018-07-10T08:57:26.795Z,87.93
2018-07-10T08:58:26.766Z,87.77
2018-07-10T08:59:26.756Z,87.57
2018-07-10T09:00:26.748Z,87.87
2018-07-10T09:01:26.740Z,87.67
2018-07-10T09:02:26.723Z,87.71
2018-07-10T09:03:26.726Z,87.47
2018-07-10T09:04:26.704Z,88.63
2018-07-10T09:05:26.723Z,87.92
2018-07-10T09:06:26.684Z,88.42
2018-07-10T09:07:26.667Z,89.70
2018-07-10T09:08:26.674Z,88.69
2018-07-10T09:09:26.642Z,88.22
2018-07-10T09:10:26.632Z,87.98
2018-07-10T09:11:26.655Z,88.79
2018-07-10T09:12:26.607Z,88.59
2018-07-10T09:13:26.600Z,87.51
2018-07-10T09:14:26.607Z,87.81
2018-07-10T09:15:26.579Z,87.41
2018-07-10T09:16:26.575Z,87.71
2018-07-10T09:17:26.579Z,88.02
2018-07-10T09:18:26.547Z,88.42
2018-07-10T09:19:26.529Z,87.92
2018-07-10T09:20:26.570Z,88.83
2018-07-10T09:21:26.505Z,88.02
2018-07-10T09:22:26.514Z,87.65
2018-07-10T09:23:26.485Z,87.96
2018-07-10T09:24:26.475Z,87.90
2018-07-10T09:25:26.482Z,88.00
2018-07-10T09:26:26.467Z,88.92
2018-07-10T09:27:26.459Z,88.71
2018-07-10T09:28:26.429Z,89.01
2018-07-10T09:29:26.429Z,89.73
2018-07-10T09:30:26.417Z,89.42
2018-07-10T09:31:26.399Z,89.73
2018-07-10T09:32:26.419Z,89.83
2018-07-10T09:33:26.386Z,90.03
2018-07-10T09:34:26.371Z,90.64
2018-07-10T09:35:26.359Z,90.24
2018-07-10T09:36:26.352Z,90.14
2018-07-10T09:37:26.356Z,90.95
2018-07-10T09:38:26.326Z,90.44
2018-07-10T09:39:26.325Z,90.03
2018-07-10T09:40:26.301Z,90.75
2018-07-10T09:41:26.289Z,90.34
2018-07-10T09:42:26.272Z,91.42
2018-07-10T09:43:26.297Z,90.20
2018-07-10T09:44:26.254Z,90.20
2018-07-10T09:45:26.251Z,90.50
2018-07-10T09:46:26.237Z,90.34
2018-07-10T09:47:26.220Z,89.99
2018-07-10T09:48:26.216Z,90.14
2018-07-10T09:49:26.236Z,90.55
2018-07-10T09:50:26.203Z,90.64
2018-07-10T09:51:26.193Z,91.66
2018-07-10T09:52:26.157Z,91.16
2018-07-10T09:53:26.150Z,91.26
2018-07-10T09:54:26.162Z,91.66
2018-07-10T09:55:26.131Z,90.95
2018-07-10T09:56:26.116Z,90.91
2018-07-10T09:57:26.117Z,91.22
2018-07-10T09:58:26.094Z,90.14
2018-07-10T09:59:26.120Z,90.75
2018-07-10T10:00:26.178Z,90.44
2018-07-10T10:01:26.070Z,90.09
2018-07-10T10:02:26.059Z,89.53
2018-07-10T10:03:26.119Z,88.46
2018-07-10T10:04:26.035Z,88.87
2018-07-10T10:05:26.055Z,89.73
2018-07-10T10:06:26.720Z,90.24
2018-07-10T10:07:25.995Z,90.34
2018-07-10T10:08:25.996Z,90.95
2018-07-10T10:09:25.993Z,90.95
2018-07-10T10:10:25.980Z,91.31
2018-07-10T10:11:25.992Z,91.22
2018-07-10T10:12:25.951Z,91.62
2018-07-10T10:13:25.930Z,91.11
2018-07-10T10:14:25.926Z,91.83
2018-07-10T10:15:25.933Z,90.56
2018-07-10T10:16:25.900Z,90.36
2018-07-10T10:17:25.907Z,90.11
2018-07-10T10:18:25.872Z,88.73
2018-07-10T10:19:25.865Z,87.71
2018-07-10T10:20:25.857Z,87.61
2018-07-10T10:21:25.884Z,88.63
2018-07-10T10:22:32.706Z,89.50
2018-07-10T10:23:25.824Z,88.18
2018-07-10T10:24:25.807Z,88.89
2018-07-10T10:25:25.798Z,88.89
2018-07-10T10:26:25.856Z,88.39
2018-07-10T10:27:25.782Z,87.93
2018-07-10T10:28:25.761Z,88.39
2018-07-10T10:29:25.755Z,89.00
2018-07-10T10:30:25.744Z,87.53
2018-07-10T10:31:25.730Z,87.23
2018-07-10T10:32:25.748Z,87.53
2018-07-10T10:33:25.738Z,87.53
2018-07-10T10:34:25.693Z,88.44
2018-07-10T10:35:25.686Z,89.26
2018-07-10T10:36:25.675Z,89.42
2018-07-10T10:37:25.660Z,89.22
2018-07-10T10:38:25.767Z,89.31
2018-07-10T10:39:25.651Z,88.20
2018-07-10T10:40:25.635Z,87.65
2018-07-10T10:41:25.619Z,88.56
2018-07-10T10:42:25.613Z,87.49
2018-07-10T10:43:25.600Z,85.31
2018-07-10T10:44:25.604Z,85.35
2018-07-10T10:45:25.584Z,84.23
2018-07-10T10:46:25.563Z,84.54
2018-07-10T10:47:25.549Z,86.77
2018-07-10T10:48:25.537Z,86.71
2018-07-10T10:49:25.643Z,86.77
2018-07-10T10:50:25.519Z,86.61
2018-07-10T10:51:25.519Z,86.82
2018-07-10T10:52:25.488Z,85.70
2018-07-10T10:53:25.478Z,86.00
2018-07-10T10:54:25.495Z,86.92
2018-07-10T10:55:25.458Z,86.71
2018-07-10T10:56:25.451Z,87.32
2018-07-10T10:57:25.456Z,87.43
2018-07-10T10:58:25.421Z,87.06
2018-07-10T10:59:25.450Z,87.84
2018-07-10T11:00:25.399Z,87.77
2018-07-10T11:01:25.389Z,88.54
2018-07-10T11:02:25.433Z,88.75
2018-07-10T11:03:25.387Z,88.54
2018-07-10T11:04:25.383Z,88.20
2018-07-10T11:05:25.374Z,88.60
2018-07-10T11:06:25.334Z,87.69
2018-07-10T11:07:25.325Z,87.04
2018-07-10T11:08:25.317Z,85.31
2018-07-10T11:09:25.325Z,85.35
2018-07-10T11:10:25.300Z,86.37
2018-07-10T11:11:25.285Z,87.38
2018-07-10T11:12:25.270Z,88.36
2018-07-10T11:13:25.259Z,87.55
2018-07-10T11:14:25.244Z,86.53
2018-07-10T11:15:26.198Z,85.52
2018-07-10T11:16:25.241Z,86.74
2018-07-10T11:17:25.214Z,88.32
2018-07-10T11:18:26.187Z,87.10
2018-07-10T11:19:25.190Z,86.55
2018-07-10T11:20:25.176Z,86.65
2018-07-10T11:21:25.198Z,86.65
2018-07-10T11:22:25.153Z,84.89
2018-07-10T11:23:25.147Z,84.78
2018-07-10T11:24:25.132Z,85.90
2018-07-10T11:25:25.121Z,86.82
2018-07-10T11:26:25.266Z,85.96
2018-07-10T11:27:25.118Z,87.69
2018-07-10T11:28:25.085Z,87.34
2018-07-10T11:29:25.078Z,87.14
2018-07-10T11:30:25.085Z,84.87
2018-07-10T11:31:25.057Z,85.07
2018-07-10T11:32:25.054Z,81.73
2018-07-10T11:33:25.048Z,82.95
2018-07-10T11:34:25.017Z,83.76
2018-07-10T11:35:25.009Z,83.61
2018-07-10T11:36:24.997Z,82.30
2018-07-10T11:37:25.034Z,83.11
2018-07-10T11:38:24.976Z,79.97
2018-07-10T11:39:25.052Z,82.40
2018-07-10T11:40:24.957Z,83.25
2018-07-10T11:41:24.947Z,81.90
2018-07-10T11:42:24.932Z,82.64
2018-07-10T11:43:25.676Z,82.10
2018-07-10T11:44:24.916Z,83.51
2018-07-10T11:45:24.926Z,77.75
2018-07-10T11:46:24.894Z,80.18
2018-07-10T11:47:24.877Z,82.14
2018-07-10T11:48:24.886Z,80.31
2018-07-10T11:49:24.865Z,79.80
2018-07-10T11:50:24.848Z,80.72
2018-07-10T11:51:24.896Z,83.45
2018-07-10T11:52:24.813Z,81.83
2018-07-10T11:53:24.801Z,81.32
2018-07-10T11:54:24.809Z,82.44
2018-07-10T11:55:24.794Z,82.03
2018-07-10T11:56:24.796Z,82.03
2018-07-10T11:57:24.768Z,82.03
2018-07-10T11:58:24.751Z,82.44
2018-07-10T11:59:24.753Z,82.54
2018-07-10T12:00:24.734Z,81.83
2018-07-10T12:01:24.723Z,80.55
2018-07-10T12:02:24.722Z,81.26
2018-07-10T12:03:24.702Z,81.63
2018-07-10T12:04:24.716Z,82.58
2018-07-10T12:05:24.671Z,81.32
2018-07-10T12:06:24.660Z,81.87
2018-07-10T12:07:24.649Z,82.28
2018-07-10T12:08:24.659Z,83.25
2018-07-10T12:09:24.627Z,83.69
2018-07-10T12:10:24.660Z,81.93
2018-07-10T12:11:24.613Z,81.87
2018-07-10T12:12:24.593Z,83.25
2018-07-10T12:13:24.578Z,81.52
2018-07-10T12:14:24.583Z,80.52
2018-07-10T12:15:24.559Z,80.41
2018-07-10T12:16:24.565Z,81.23
2018-07-10T12:17:24.539Z,81.83
2018-07-10T12:18:24.528Z,82.24
2018-07-10T12:19:24.514Z,82.44
2018-07-10T12:20:24.513Z,82.14
2018-07-10T12:21:24.506Z,82.24
2018-07-10T12:22:24.485Z,82.44
2018-07-10T12:23:24.475Z,82.48
2018-07-10T12:24:24.456Z,82.52
2018-07-10T12:25:24.449Z,83.57
2018-07-10T12:26:24.466Z,83.81
2018-07-10T12:27:24.421Z,84.01
2018-07-10T12:28:24.418Z,84.22
2018-07-10T12:29:24.409Z,85.03
2018-07-10T12:30:24.397Z,84.93
2018-07-10T12:31:24.394Z,85.17
2018-07-10T12:32:24.375Z,85.68
2018-07-10T12:33:24.356Z,85.78
2018-07-10T12:34:24.349Z,86.49
2018-07-10T12:35:24.336Z,85.88
2018-07-10T12:36:24.334Z,85.07
2018-07-10T12:37:24.313Z,85.27
2018-07-10T12:38:24.317Z,85.62
2018-07-10T12:39:24.291Z,85.96
2018-07-10T12:40:24.285Z,86.13
2018-07-10T12:41:24.294Z,86.27
2018-07-10T12:42:24.262Z,86.74
2018-07-10T12:43:24.246Z,86.53
2018-07-10T12:44:24.251Z,86.53
2018-07-10T12:45:24.227Z,86.98
2018-07-10T12:46:24.207Z,86.57
2018-07-10T12:47:24.230Z,86.43
2018-07-10T12:48:24.185Z,86.02
2018-07-10T12:49:24.228Z,87.04
2018-07-10T12:50:24.200Z,86.33
2018-07-10T12:51:24.153Z,86.33
2018-07-10T12:52:24.731Z,86.63